createdAt,value
2023-02-19T00:01:22.935Z,8.60
2023-02-19T00:03:55.195Z,8.60
2023-02-19T00:06:23.490Z,8.60
2023-02-19T00:08:50.640Z,8.60
2023-02-19T00:11:20.765Z,8.60
2023-02-19T00:13:50.853Z,8.60
2023-02-19T00:16:23.491Z,8.50
2023-02-19T00:18:50.891Z,8.50
2023-02-19T00:21:18.434Z,8.50
2023-02-19T00:23:52.910Z,8.50
2023-02-19T00:26:20.614Z,8.50
2023-02-19T00:28:50.017Z,8.50
2023-02-19T00:31:23.254Z,8.60
2023-02-19T00:33:53.287Z,8.60
2023-02-19T00:36:20.889Z,8.80
2023-02-19T00:38:48.427Z,8.90
2023-02-19T00:41:19.778Z,8.80
2023-02-19T00:43:51.360Z,8.90
2023-02-19T00:46:20.684Z,8.80
2023-02-19T00:48:47.925Z,8.80
2023-02-19T00:51:15.209Z,8.70
2023-02-19T00:53:42.595Z,8.60
2023-02-19T00:56:10.072Z,8.50
2023-02-19T00:58:37.267Z,8.50
2023-02-19T01:01:06.504Z,8.50
2023-02-19T01:03:36.789Z,8.50
2023-02-19T01:06:05.224Z,8.50
2023-02-19T01:08:32.699Z,8.50
2023-02-19T01:11:02.731Z,8.60
2023-02-19T01:13:30.132Z,8.70
2023-02-19T01:16:03.932Z,8.70
2023-02-19T01:18:31.769Z,8.80
2023-02-19T01:20:58.896Z,8.90
2023-02-19T01:23:25.798Z,8.90
2023-02-19T01:25:52.617Z,8.90
2023-02-19T01:28:19.438Z,8.90
2023-02-19T01:30:46.263Z,8.90
2023-02-19T01:33:13.005Z,8.90
2023-02-19T01:35:40.250Z,8.90
2023-02-19T01:38:08.717Z,8.80
2023-02-19T01:40:35.958Z,8.80
2023-02-19T01:43:03.749Z,8.80
2023-02-19T01:45:42.342Z,8.80
2023-02-19T01:48:26.713Z,8.80
2023-02-19T01:50:59.682Z,8.80
2023-02-19T01:53:30.944Z,8.80
2023-02-19T01:56:00.752Z,8.80
2023-02-19T01:58:31.525Z,8.80
2023-02-19T02:00:59.647Z,8.70
2023-02-19T02:03:26.465Z,8.80
2023-02-19T02:06:07.198Z,8.80
2023-02-19T02:08:53.081Z,8.80
2023-02-19T02:11:21.189Z,8.90
2023-02-19T02:13:48.809Z,8.90
2023-02-19T02:16:45.798Z,8.90
2023-02-19T02:19:31.437Z,8.90
2023-02-19T02:22:07.596Z,8.80
2023-02-19T02:24:40.075Z,8.90
2023-02-19T02:27:13.480Z,8.90
2023-02-19T02:30:08.716Z,8.90
2023-02-19T02:32:41.983Z,8.90
2023-02-19T02:35:19.231Z,9.00
2023-02-19T02:37:48.454Z,9.00
2023-02-19T02:40:16.665Z,9.00
2023-02-19T02:42:44.226Z,9.00
2023-02-19T02:45:36.726Z,9.00
2023-02-19T02:48:42.653Z,9.00
2023-02-19T02:51:33.440Z,9.00
2023-02-19T02:54:42.539Z,9.20
2023-02-19T02:57:14.971Z,9.20
2023-02-19T02:59:57.900Z,9.20
2023-02-19T03:02:30.092Z,9.10
2023-02-19T03:05:28.778Z,9.10
2023-02-19T03:08:10.237Z,9.10
2023-02-19T03:10:43.377Z,9.10
2023-02-19T03:14:05.467Z,9.20
2023-02-19T03:16:54.835Z,9.20
2023-02-19T03:19:24.845Z,9.20
2023-02-19T03:21:53.223Z,9.30
2023-02-19T03:24:48.067Z,9.40
2023-02-19T03:27:16.451Z,9.40
2023-02-19T03:29:49.194Z,9.30
2023-02-19T03:32:25.549Z,9.40
2023-02-19T03:35:14.600Z,9.40
2023-02-19T03:37:51.717Z,9.40
2023-02-19T03:40:18.804Z,9.40
2023-02-19T03:42:58.683Z,9.40
2023-02-19T03:45:39.734Z,9.30
2023-02-19T03:48:24.831Z,9.30
2023-02-19T03:51:10.583Z,9.40
2023-02-19T03:54:14.572Z,9.30
2023-02-19T03:57:00.131Z,9.20
2023-02-19T03:59:46.536Z,9.20
2023-02-19T04:02:24.242Z,9.30
2023-02-19T04:04:58.333Z,9.20
2023-02-19T04:07:27.846Z,9.20
2023-02-19T04:09:54.989Z,9.30
2023-02-19T04:12:23.672Z,9.30
2023-02-19T04:15:07.083Z,9.40
2023-02-19T04:17:42.054Z,9.40
2023-02-19T04:20:11.993Z,9.40
2023-02-19T04:22:40.109Z,9.30
2023-02-19T04:25:08.281Z,9.30
2023-02-19T04:27:44.270Z,9.30
2023-02-19T04:30:12.781Z,9.20
2023-02-19T04:32:39.542Z,9.20
2023-02-19T04:35:06.504Z,9.20
2023-02-19T04:37:33.358Z,9.20
2023-02-19T04:40:00.048Z,9.20
2023-02-19T04:42:26.803Z,9.20
2023-02-19T04:44:53.754Z,9.10
2023-02-19T04:47:20.513Z,9.20
2023-02-19T04:49:47.224Z,9.10
2023-02-19T04:52:14.065Z,9.20
2023-02-19T04:54:40.763Z,9.20
2023-02-19T04:57:07.509Z,9.10
2023-02-19T04:59:34.260Z,9.10
2023-02-19T05:02:01.053Z,9.00
2023-02-19T05:04:27.846Z,9.00
2023-02-19T05:06:54.584Z,9.00
2023-02-19T05:09:21.367Z,9.00
2023-02-19T05:11:48.104Z,9.00
2023-02-19T05:14:14.820Z,9.00
2023-02-19T05:16:41.506Z,9.10
2023-02-19T05:19:11.401Z,9.20
2023-02-19T05:21:40.248Z,9.20
2023-02-19T05:24:07.828Z,9.20
2023-02-19T05:26:34.786Z,9.20
2023-02-19T05:29:01.798Z,9.20
2023-02-19T05:31:28.921Z,9.00
2023-02-19T05:33:56.630Z,8.50
2023-02-19T05:36:23.934Z,7.80
2023-02-19T05:38:57.316Z,7.20
2023-02-19T05:41:28.781Z,7.20
2023-02-19T05:43:57.422Z,7.10
2023-02-19T05:46:27.143Z,7.00
2023-02-19T05:48:54.655Z,6.80
2023-02-19T05:51:23.396Z,6.80
2023-02-19T05:53:50.904Z,6.70
2023-02-19T05:56:36.258Z,6.70
2023-02-19T05:59:07.803Z,6.70
2023-02-19T06:01:35.245Z,6.60
2023-02-19T06:04:02.042Z,6.70
2023-02-19T06:06:28.857Z,6.70
2023-02-19T06:08:55.630Z,6.70
2023-02-19T06:11:22.800Z,6.50
2023-02-19T06:13:50.468Z,6.40
2023-02-19T06:16:18.337Z,6.30
2023-02-19T06:18:45.680Z,6.30
2023-02-19T06:21:13.440Z,6.30
2023-02-19T06:23:40.739Z,6.20
2023-02-19T06:26:17.967Z,6.20
2023-02-19T06:28:46.093Z,6.10
2023-02-19T06:31:13.837Z,6.20
2023-02-19T06:33:41.519Z,6.10
2023-02-19T06:36:12.383Z,6.10
2023-02-19T06:38:39.170Z,6.10
2023-02-19T06:41:07.091Z,6.00
2023-02-19T06:43:34.556Z,6.00
2023-02-19T06:46:03.598Z,6.00
2023-02-19T06:48:31.623Z,6.00
2023-02-19T06:50:58.703Z,6.00
2023-02-19T06:53:25.801Z,6.00
2023-02-19T06:56:03.320Z,6.00
2023-02-19T06:58:30.560Z,6.00
2023-02-19T07:00:57.321Z,5.80
2023-02-19T07:03:24.256Z,5.80
2023-02-19T07:05:50.969Z,5.80
2023-02-19T07:08:18.217Z,5.70
2023-02-19T07:10:45.683Z,5.70
2023-02-19T07:13:12.520Z,5.60
2023-02-19T07:15:39.322Z,5.70
2023-02-19T07:18:10.233Z,5.60
2023-02-19T07:20:37.312Z,5.50
2023-02-19T07:23:04.073Z,5.50
2023-02-19T07:25:31.044Z,5.30
2023-02-19T07:27:57.827Z,5.30
2023-02-19T07:30:24.618Z,5.30
2023-02-19T07:32:51.321Z,5.30
2023-02-19T07:35:18.069Z,5.30
2023-02-19T07:37:44.853Z,5.30
2023-02-19T07:40:11.659Z,5.30
2023-02-19T07:42:38.396Z,5.30
2023-02-19T07:45:06.188Z,5.30
2023-02-19T07:47:32.913Z,5.30
2023-02-19T07:49:59.635Z,5.40
2023-02-19T07:52:26.556Z,5.40
2023-02-19T07:54:53.274Z,5.50
2023-02-19T07:57:19.999Z,5.50
2023-02-19T07:59:46.719Z,5.50
2023-02-19T08:02:38.395Z,5.40
2023-02-19T08:05:06.780Z,5.10
2023-02-19T08:07:36.965Z,5.00
2023-02-19T08:10:23.167Z,4.90
2023-02-19T08:13:19.322Z,5.00
2023-02-19T08:15:47.059Z,4.90
2023-02-19T08:18:15.321Z,5.00
2023-02-19T08:20:43.069Z,5.10
2023-02-19T08:23:10.839Z,5.00
2023-02-19T08:25:38.088Z,5.00
2023-02-19T08:28:05.769Z,4.90
2023-02-19T08:30:33.421Z,5.00
2023-02-19T08:33:02.267Z,4.90
2023-02-19T08:35:29.303Z,4.70
2023-02-19T08:37:59.249Z,4.70
2023-02-19T08:40:26.518Z,4.90
2023-02-19T08:42:53.557Z,5.00
2023-02-19T08:45:20.504Z,4.80
2023-02-19T08:47:47.403Z,4.70
2023-02-19T08:50:14.141Z,4.80
2023-02-19T08:52:40.887Z,5.00
2023-02-19T08:55:07.931Z,5.00
2023-02-19T08:57:37.663Z,5.00
2023-02-19T09:00:06.771Z,5.10
2023-02-19T09:02:33.631Z,5.10
2023-02-19T09:05:00.460Z,5.30
2023-02-19T09:07:27.523Z,5.00
2023-02-19T09:09:54.866Z,5.00
2023-02-19T09:12:21.576Z,5.00
2023-02-19T09:14:48.337Z,4.90
2023-02-19T09:17:15.041Z,4.70
2023-02-19T09:19:41.788Z,5.00
2023-02-19T09:22:08.569Z,5.10
2023-02-19T09:24:35.428Z,5.20
2023-02-19T09:27:02.161Z,5.00
2023-02-19T09:29:29.172Z,5.10
2023-02-19T09:31:58.064Z,5.30
2023-02-19T09:34:26.416Z,5.50
2023-02-19T09:36:54.026Z,5.70
2023-02-19T09:39:21.373Z,5.50
2023-02-19T09:41:52.052Z,5.80
2023-02-19T09:44:34.639Z,6.00
2023-02-19T09:47:03.598Z,5.90
2023-02-19T09:49:36.422Z,5.70
2023-02-19T09:52:14.941Z,5.60
2023-02-19T09:54:42.711Z,5.80
2023-02-19T09:57:18.970Z,5.70
2023-02-19T09:59:51.792Z,5.90
2023-02-19T10:02:21.160Z,5.90
2023-02-19T10:04:51.037Z,5.90
2023-02-19T10:07:20.029Z,5.90
2023-02-19T10:09:54.854Z,6.00
2023-02-19T10:12:26.543Z,6.10
2023-02-19T10:15:00.209Z,6.20
2023-02-19T10:17:30.696Z,6.30
2023-02-19T10:19:58.254Z,6.20
2023-02-19T10:22:25.454Z,6.40
2023-02-19T10:24:55.672Z,6.50
2023-02-19T10:27:22.503Z,6.40
2023-02-19T10:29:54.468Z,6.50
2023-02-19T10:32:25.224Z,6.40
2023-02-19T10:35:21.184Z,6.50
2023-02-19T10:37:51.116Z,6.70
2023-02-19T10:40:23.236Z,6.70
2023-02-19T10:42:53.875Z,6.60
2023-02-19T10:45:35.093Z,6.60
2023-02-19T10:48:02.849Z,6.50
2023-02-19T10:50:46.933Z,6.50
2023-02-19T10:53:24.456Z,6.50
2023-02-19T10:56:08.306Z,6.50
2023-02-19T10:58:37.321Z,6.60
2023-02-19T11:01:11.947Z,6.60
2023-02-19T11:03:38.927Z,6.50
2023-02-19T11:06:08.980Z,6.60
2023-02-19T11:08:45.615Z,6.80
2023-02-19T11:11:34.522Z,7.00
2023-02-19T11:14:05.514Z,6.90
2023-02-19T11:16:52.060Z,6.80
2023-02-19T11:19:27.149Z,6.90
2023-02-19T11:21:54.596Z,6.80
2023-02-19T11:24:34.145Z,6.70
2023-02-19T11:27:06.729Z,6.70
2023-02-19T11:29:35.381Z,6.90
2023-02-19T11:32:20.834Z,6.70
2023-02-19T11:34:48.275Z,7.00
2023-02-19T11:37:20.968Z,6.90
2023-02-19T11:39:49.518Z,7.00
2023-02-19T11:42:43.629Z,7.10
2023-02-19T11:45:22.974Z,7.20
2023-02-19T11:48:11.011Z,7.20
2023-02-19T11:51:01.006Z,7.20
2023-02-19T11:53:32.095Z,7.40
2023-02-19T11:56:20.850Z,7.60
2023-02-19T11:59:00.804Z,7.80
2023-02-19T12:01:46.094Z,7.80
2023-02-19T12:04:25.137Z,7.90
2023-02-19T12:07:23.085Z,8.00
2023-02-19T12:10:11.596Z,8.00
2023-02-19T12:12:47.352Z,8.00
2023-02-19T12:15:26.356Z,7.90
2023-02-19T12:18:11.884Z,7.80
2023-02-19T12:21:01.971Z,7.60
2023-02-19T12:23:31.457Z,7.60
2023-02-19T12:26:16.329Z,7.60
2023-02-19T12:29:06.455Z,7.80
2023-02-19T12:32:01.111Z,7.80
2023-02-19T12:34:38.322Z,8.00
2023-02-19T12:37:38.977Z,8.00
2023-02-19T12:40:18.020Z,7.90
2023-02-19T12:42:55.905Z,7.80
2023-02-19T12:45:33.164Z,7.80
2023-02-19T12:48:08.082Z,7.80
2023-02-19T12:50:37.293Z,7.90
2023-02-19T12:53:30.088Z,8.00
2023-02-19T12:55:59.532Z,8.00
2023-02-19T12:58:37.753Z,8.00
2023-02-19T13:01:05.619Z,8.00
2023-02-19T13:03:45.045Z,8.00
2023-02-19T13:06:27.336Z,8.10
2023-02-19T13:09:11.374Z,8.10
2023-02-19T13:11:47.869Z,8.10
2023-02-19T13:14:39.855Z,8.10
2023-02-19T13:17:23.850Z,8.10
2023-02-19T13:19:56.370Z,8.20
2023-02-19T13:23:20.597Z,8.20
2023-02-19T13:26:15.514Z,8.10
2023-02-19T13:29:07.529Z,8.50
2023-02-19T13:32:05.527Z,8.80
2023-02-19T13:34:42.584Z,8.70
2023-02-19T13:37:11.310Z,8.50
2023-02-19T13:39:48.615Z,8.40
2023-02-19T13:42:25.941Z,8.30
2023-02-19T13:44:57.724Z,8.30
2023-02-19T13:47:49.007Z,8.30
2023-02-19T13:50:26.266Z,8.10
2023-02-19T13:52:55.407Z,8.00
2023-02-19T13:55:46.054Z,8.00
2023-02-19T13:58:35.305Z,8.00
2023-02-19T14:01:11.959Z,7.90
2023-02-19T14:03:38.938Z,8.00
2023-02-19T14:06:08.413Z,8.10
2023-02-19T14:08:52.648Z,8.00
2023-02-19T14:11:41.899Z,8.00
2023-02-19T14:14:36.163Z,8.00
2023-02-19T14:17:10.277Z,8.00
2023-02-19T14:19:48.808Z,7.80
2023-02-19T14:22:49.761Z,8.00
2023-02-19T14:25:31.408Z,8.10
2023-02-19T14:28:10.129Z,8.10
2023-02-19T14:30:56.735Z,8.20
2023-02-19T14:33:32.818Z,8.10
2023-02-19T14:36:44.142Z,8.00
2023-02-19T14:39:29.043Z,8.00
2023-02-19T14:42:21.750Z,8.00
2023-02-19T14:44:55.343Z,8.00
2023-02-19T14:47:24.648Z,7.80
2023-02-19T14:49:53.861Z,7.80
2023-02-19T14:52:25.271Z,7.70
2023-02-19T14:54:59.283Z,7.60
2023-02-19T14:57:30.320Z,7.60
2023-02-19T15:00:16.479Z,7.50
2023-02-19T15:02:43.589Z,7.50
2023-02-19T15:05:18.074Z,7.40
2023-02-19T15:07:45.256Z,7.30
2023-02-19T15:10:14.090Z,7.20
2023-02-19T15:12:51.404Z,7.20
2023-02-19T15:15:22.815Z,7.10
2023-02-19T15:17:50.968Z,7.00
2023-02-19T15:20:30.995Z,7.00
2023-02-19T15:23:00.006Z,6.90
2023-02-19T15:25:38.663Z,6.80
2023-02-19T15:28:24.143Z,6.80
2023-02-19T15:31:12.134Z,6.80
2023-02-19T15:33:39.208Z,6.70
2023-02-19T15:36:09.075Z,6.70
2023-02-19T15:38:36.178Z,6.60
2023-02-19T15:41:03.157Z,6.60
2023-02-19T15:43:50.651Z,6.60
2023-02-19T15:46:25.166Z,6.50
2023-02-19T15:49:08.941Z,6.50
2023-02-19T15:51:48.400Z,6.60
2023-02-19T15:54:52.332Z,6.60
2023-02-19T15:57:23.560Z,6.50
2023-02-19T16:00:13.770Z,6.50
2023-02-19T16:02:41.089Z,6.50
2023-02-19T16:05:22.692Z,6.50
2023-02-19T16:08:25.583Z,6.40
2023-02-19T16:10:55.802Z,6.30
2023-02-19T16:13:24.939Z,6.30
2023-02-19T16:16:02.710Z,6.30
2023-02-19T16:18:30.607Z,6.20
2023-02-19T16:20:57.872Z,6.10
2023-02-19T16:23:25.409Z,6.10
2023-02-19T16:26:01.074Z,6.10
2023-02-19T16:28:30.822Z,6.10
2023-02-19T16:30:59.912Z,6.10
2023-02-19T16:33:48.647Z,6.00
2023-02-19T16:36:41.767Z,5.90
2023-02-19T16:39:08.668Z,5.90
2023-02-19T16:41:47.456Z,5.80
2023-02-19T16:44:27.417Z,5.90
2023-02-19T16:47:06.635Z,5.90
2023-02-19T16:49:33.794Z,6.00
2023-02-19T16:52:04.044Z,6.00
2023-02-19T16:54:31.388Z,6.00
2023-02-19T16:56:58.134Z,6.00
2023-02-19T16:59:24.838Z,6.00
2023-02-19T17:01:51.650Z,6.10
2023-02-19T17:04:18.494Z,6.20
2023-02-19T17:06:46.566Z,6.20
2023-02-19T17:09:13.285Z,6.20
2023-02-19T17:11:39.986Z,6.20
2023-02-19T17:14:06.715Z,6.20
2023-02-19T17:16:40.271Z,6.20
2023-02-19T17:19:16.755Z,6.20
2023-02-19T17:21:45.067Z,6.00
2023-02-19T17:24:12.264Z,6.00
2023-02-19T17:26:38.998Z,6.00
2023-02-19T17:29:08.442Z,6.00
2023-02-19T17:31:35.261Z,5.90
2023-02-19T17:34:02.079Z,6.00
2023-02-19T17:36:30.850Z,6.00
2023-02-19T17:38:59.394Z,6.00
2023-02-19T17:41:26.364Z,6.00
2023-02-19T17:43:53.532Z,6.10
2023-02-19T17:46:23.212Z,6.10
2023-02-19T17:48:50.686Z,6.10
2023-02-19T17:51:17.619Z,6.20
2023-02-19T17:53:46.360Z,6.20
2023-02-19T17:56:21.944Z,6.10
2023-02-19T17:58:48.964Z,6.20
2023-02-19T18:01:16.032Z,6.20
2023-02-19T18:03:43.273Z,6.10
2023-02-19T18:06:10.269Z,6.00
2023-02-19T18:08:37.604Z,6.00
2023-02-19T18:11:06.154Z,6.00
2023-02-19T18:13:32.841Z,6.20
2023-02-19T18:15:59.607Z,6.30
2023-02-19T18:18:26.336Z,6.30
2023-02-19T18:20:53.249Z,6.30
2023-02-19T18:23:20.700Z,6.30
2023-02-19T18:25:47.691Z,6.30
2023-02-19T18:28:15.068Z,6.20
2023-02-19T18:30:41.985Z,6.20
2023-02-19T18:33:10.836Z,6.10
2023-02-19T18:35:38.487Z,6.20
2023-02-19T18:38:06.134Z,6.30
2023-02-19T18:40:32.980Z,6.20
2023-02-19T18:42:59.869Z,6.30
2023-02-19T18:45:27.431Z,6.40
2023-02-19T18:47:54.193Z,6.30
2023-02-19T18:50:20.909Z,6.40
2023-02-19T18:52:47.809Z,6.40
2023-02-19T18:55:14.740Z,6.20
2023-02-19T18:57:41.514Z,6.20
2023-02-19T19:00:09.486Z,6.10
2023-02-19T19:02:48.743Z,6.10
2023-02-19T19:05:23.572Z,6.10
2023-02-19T19:07:55.241Z,6.10
2023-02-19T19:10:22.671Z,6.00
2023-02-19T19:12:49.459Z,6.00
2023-02-19T19:15:18.346Z,6.00
2023-02-19T19:17:46.241Z,5.90
2023-02-19T19:20:18.490Z,5.90
2023-02-19T19:22:45.335Z,6.00
2023-02-19T19:25:12.312Z,6.10
2023-02-19T19:27:39.190Z,6.00
2023-02-19T19:30:07.033Z,6.10
2023-02-19T19:32:34.152Z,6.10
2023-02-19T19:35:01.417Z,6.10
2023-02-19T19:37:29.183Z,6.20
2023-02-19T19:39:56.395Z,6.20
2023-02-19T19:42:23.510Z,6.20
2023-02-19T19:44:50.370Z,6.10
2023-02-19T19:47:17.221Z,6.00
2023-02-19T19:49:47.109Z,6.10
2023-02-19T19:52:13.992Z,6.20
2023-02-19T19:54:44.308Z,6.10
2023-02-19T19:57:11.336Z,6.00
2023-02-19T19:59:39.284Z,6.00
2023-02-19T20:02:07.551Z,6.00
2023-02-19T20:04:34.408Z,6.00
2023-02-19T20:07:01.728Z,6.00
2023-02-19T20:09:29.036Z,5.90
2023-02-19T20:11:55.976Z,6.00
2023-02-19T20:14:24.015Z,5.90
2023-02-19T20:16:50.873Z,5.90
2023-02-19T20:19:19.487Z,5.90
2023-02-19T20:21:48.246Z,5.90
2023-02-19T20:24:16.726Z,5.90
2023-02-19T20:26:44.157Z,5.90
2023-02-19T20:29:11.149Z,5.90
2023-02-19T20:31:38.687Z,5.90
2023-02-19T20:34:05.976Z,5.90
2023-02-19T20:36:32.820Z,6.00
2023-02-19T20:38:59.637Z,6.00
2023-02-19T20:41:26.368Z,6.00
2023-02-19T20:43:53.400Z,5.90
2023-02-19T20:46:20.329Z,6.00
2023-02-19T20:48:47.230Z,6.00
2023-02-19T20:51:14.096Z,6.10
2023-02-19T20:53:42.423Z,6.20
2023-02-19T20:56:11.323Z,6.10
2023-02-19T20:58:40.580Z,6.10
2023-02-19T21:01:08.240Z,6.20
2023-02-19T21:03:35.032Z,6.10
2023-02-19T21:06:01.740Z,6.10
2023-02-19T21:08:28.431Z,6.20
2023-02-19T21:10:56.245Z,6.10
2023-02-19T21:13:23.474Z,6.20
2023-02-19T21:15:50.287Z,6.20
2023-02-19T21:18:17.408Z,6.20
2023-02-19T21:20:44.248Z,6.20
2023-02-19T21:23:10.998Z,6.30
2023-02-19T21:25:37.702Z,6.40
2023-02-19T21:28:05.599Z,6.30
2023-02-19T21:30:32.453Z,6.40
2023-02-19T21:32:59.197Z,6.40
2023-02-19T21:35:25.883Z,6.40
2023-02-19T21:37:52.612Z,6.30
2023-02-19T21:40:21.500Z,6.30
2023-02-19T21:42:48.359Z,6.30
2023-02-19T21:45:15.174Z,6.30
2023-02-19T21:47:42.991Z,6.30
2023-02-19T21:50:09.960Z,6.20
2023-02-19T21:52:37.321Z,6.30
2023-02-19T21:55:04.346Z,6.20
2023-02-19T21:57:32.526Z,6.30
2023-02-19T21:59:59.355Z,6.30
2023-02-19T22:02:26.169Z,6.30
2023-02-19T22:04:53.847Z,6.30
2023-02-19T22:07:21.510Z,6.30
2023-02-19T22:09:50.329Z,6.30
2023-02-19T22:12:18.618Z,6.40
2023-02-19T22:14:45.771Z,6.40
2023-02-19T22:17:12.573Z,6.40
2023-02-19T22:19:39.366Z,6.40
2023-02-19T22:22:06.150Z,6.50
2023-02-19T22:24:32.884Z,6.40
2023-02-19T22:26:59.958Z,6.40
2023-02-19T22:29:26.733Z,6.40
2023-02-19T22:31:53.512Z,6.40
2023-02-19T22:34:20.370Z,6.40
2023-02-19T22:36:47.429Z,6.40
2023-02-19T22:39:26.381Z,6.40
2023-02-19T22:41:53.750Z,6.40
2023-02-19T22:44:20.536Z,6.40
2023-02-19T22:46:49.720Z,6.20
2023-02-19T22:49:17.208Z,6.20
2023-02-19T22:52:10.394Z,6.40
2023-02-19T22:54:37.916Z,6.40
2023-02-19T22:57:05.194Z,6.40
2023-02-19T22:59:32.031Z,6.40
2023-02-19T23:01:58.802Z,6.50
2023-02-19T23:04:26.177Z,6.50
2023-02-19T23:06:53.006Z,6.50
2023-02-19T23:09:24.290Z,6.50
2023-02-19T23:11:51.958Z,6.50
2023-02-19T23:14:21.945Z,6.50
2023-02-19T23:16:48.749Z,6.50
2023-02-19T23:19:16.104Z,6.50
2023-02-19T23:21:44.513Z,6.50
2023-02-19T23:24:12.330Z,6.50
2023-02-19T23:26:46.776Z,6.50
2023-02-19T23:29:25.149Z,6.50
2023-02-19T23:31:52.960Z,6.50
2023-02-19T23:34:20.279Z,6.50
2023-02-19T23:36:49.419Z,6.60
2023-02-19T23:39:19.194Z,6.60
2023-02-19T23:41:53.929Z,6.60
2023-02-19T23:44:21.583Z,6.50
2023-02-19T23:46:48.969Z,6.40
2023-02-19T23:49:16.123Z,6.50
2023-02-19T23:51:43.154Z,6.50
2023-02-19T23:54:09.994Z,6.50
2023-02-19T23:56:36.812Z,6.50
2023-02-19T23:59:04.070Z,6.50
